sensor_id;sensor_type;location;lat;lon;timestamp;P1;durP1;ratioP1;P2;durP2;ratioP2
9720;SDS011;4899;42.644;23.366;2023-04-08T00:02:02;19.13;;;16.50;;
9720;SDS011;4899;42.644;23.366;2023-04-08T00:04:27;18.07;;;15.43;;
9720;SDS011;4899;42.644;23.366;2023-04-08T00:06:52;17.63;;;15.67;;
9720;SDS011;4899;42.644;23.366;2023-04-08T00:09:18;18.17;;;15.80;;
9720;SDS011;4899;42.644;23.366;2023-04-08T00:11:44;17.27;;;15.47;;
9720;SDS011;4899;42.644;23.366;2023-04-08T00:14:09;17.97;;;15.83;;
9720;SDS011;4899;42.644;23.366;2023-04-08T00:16:35;18.13;;;15.80;;
9720;SDS011;4899;42.644;23.366;2023-04-08T00:19:00;18.83;;;15.97;;
9720;SDS011;4899;42.644;23.366;2023-04-08T00:21:26;20.17;;;16.77;;
9720;SDS011;4899;42.644;23.366;2023-04-08T00:23:52;19.80;;;17.73;;
9720;SDS011;4899;42.644;23.366;2023-04-08T00:26:18;16.90;;;15.20;;
9720;SDS011;4899;42.644;23.366;2023-04-08T00:28:43;18.07;;;15.70;;
9720;SDS011;4899;42.644;23.366;2023-04-08T00:31:09;18.20;;;16.30;;
9720;SDS011;4899;42.644;23.366;2023-04-08T00:33:34;18.20;;;16.07;;
9720;SDS011;4899;42.644;23.366;2023-04-08T00:36:00;19.23;;;15.70;;
9720;SDS011;4899;42.644;23.366;2023-04-08T00:38:26;19.03;;;17.03;;
9720;SDS011;4899;42.644;23.366;2023-04-08T00:40:51;16.83;;;15.03;;
9720;SDS011;4899;42.644;23.366;2023-04-08T00:43:16;16.27;;;14.57;;
9720;SDS011;4899;42.644;23.366;2023-04-08T00:45:45;16.20;;;14.20;;
9720;SDS011;4899;42.644;23.366;2023-04-08T00:48:10;16.43;;;13.40;;
9720;SDS011;4899;42.644;23.366;2023-04-08T00:50:36;13.53;;;12.23;;
9720;SDS011;4899;42.644;23.366;2023-04-08T00:53:02;13.93;;;12.27;;
9720;SDS011;4899;42.644;23.366;2023-04-08T00:55:27;12.97;;;11.30;;
9720;SDS011;4899;42.644;23.366;2023-04-08T00:57:52;16.00;;;12.97;;
9720;SDS011;4899;42.644;23.366;2023-04-08T01:00:18;15.73;;;14.13;;
9720;SDS011;4899;42.644;23.366;2023-04-08T01:02:46;17.97;;;14.80;;
9720;SDS011;4899;42.644;23.366;2023-04-08T01:05:20;19.60;;;16.70;;
9720;SDS011;4899;42.644;23.366;2023-04-08T01:07:54;18.50;;;15.90;;
9720;SDS011;4899;42.644;23.366;2023-04-08T01:10:30;19.47;;;16.10;;
9720;SDS011;4899;42.644;23.366;2023-04-08T01:13:03;20.60;;;16.70;;
9720;SDS011;4899;42.644;23.366;2023-04-08T01:15:32;19.73;;;17.63;;
9720;SDS011;4899;42.644;23.366;2023-04-08T01:18:00;19.33;;;17.23;;
9720;SDS011;4899;42.644;23.366;2023-04-08T01:20:31;18.50;;;15.67;;
9720;SDS011;4899;42.644;23.366;2023-04-08T01:28:12;16.83;;;15.13;;
9720;SDS011;4899;42.644;23.366;2023-04-08T01:30:40;18.53;;;15.53;;
9720;SDS011;4899;42.644;23.366;2023-04-08T01:33:11;17.63;;;14.63;;
9720;SDS011;4899;42.644;23.366;2023-04-08T01:35:39;16.63;;;14.93;;
9720;SDS011;4899;42.644;23.366;2023-04-08T01:38:05;16.80;;;14.33;;
9720;SDS011;4899;42.644;23.366;2023-04-08T01:40:33;16.43;;;14.63;;
9720;SDS011;4899;42.644;23.366;2023-04-08T01:43:02;17.20;;;14.87;;
9720;SDS011;4899;42.644;23.366;2023-04-08T01:45:31;19.47;;;15.00;;
9720;SDS011;4899;42.644;23.366;2023-04-08T01:47:56;16.63;;;13.47;;
9720;SDS011;4899;42.644;23.366;2023-04-08T01:50:24;16.93;;;14.83;;
9720;SDS011;4899;42.644;23.366;2023-04-08T01:52:51;15.23;;;13.63;;
9720;SDS011;4899;42.644;23.366;2023-04-08T01:55:18;17.03;;;15.30;;
9720;SDS011;4899;42.644;23.366;2023-04-08T01:57:47;19.47;;;14.97;;
9720;SDS011;4899;42.644;23.366;2023-04-08T02:00:16;17.47;;;15.67;;
9720;SDS011;4899;42.644;23.366;2023-04-08T02:02:44;19.57;;;17.37;;
9720;SDS011;4899;42.644;23.366;2023-04-08T02:05:11;16.73;;;14.93;;
9720;SDS011;4899;42.644;23.366;2023-04-08T02:07:38;17.50;;;15.70;;
9720;SDS011;4899;42.644;23.366;2023-04-08T02:10:03;17.07;;;15.10;;
9720;SDS011;4899;42.644;23.366;2023-04-08T02:12:29;16.30;;;14.60;;
9720;SDS011;4899;42.644;23.366;2023-04-08T02:14:55;15.77;;;13.97;;
9720;SDS011;4899;42.644;23.366;2023-04-08T02:20:18;14.10;;;12.70;;
9720;SDS011;4899;42.644;23.366;2023-04-08T02:25:47;12.57;;;11.33;;
9720;SDS011;4899;42.644;23.366;2023-04-08T02:28:14;12.80;;;11.50;;
9720;SDS011;4899;42.644;23.366;2023-04-08T02:30:42;15.23;;;11.37;;
9720;SDS011;4899;42.644;23.366;2023-04-08T02:33:10;12.20;;;10.27;;
9720;SDS011;4899;42.644;23.366;2023-04-08T02:35:38;10.97;;;9.97;;
9720;SDS011;4899;42.644;23.366;2023-04-08T02:38:05;12.50;;;11.30;;
9720;SDS011;4899;42.644;23.366;2023-04-08T02:40:32;10.57;;;9.57;;
9720;SDS011;4899;42.644;23.366;2023-04-08T02:42:59;12.37;;;11.17;;
9720;SDS011;4899;42.644;23.366;2023-04-08T02:45:32;11.63;;;10.53;;
9720;SDS011;4899;42.644;23.366;2023-04-08T02:48:06;12.63;;;11.40;;
9720;SDS011;4899;42.644;23.366;2023-04-08T02:50:32;13.53;;;11.20;;
9720;SDS011;4899;42.644;23.366;2023-04-08T02:52:57;13.27;;;10.70;;
9720;SDS011;4899;42.644;23.366;2023-04-08T02:55:23;12.53;;;11.23;;
9720;SDS011;4899;42.644;23.366;2023-04-08T02:57:48;12.07;;;10.83;;
9720;SDS011;4899;42.644;23.366;2023-04-08T03:00:14;11.70;;;10.60;;
9720;SDS011;4899;42.644;23.366;2023-04-08T03:02:40;12.53;;;11.33;;
9720;SDS011;4899;42.644;23.366;2023-04-08T03:05:05;12.53;;;11.33;;
9720;SDS011;4899;42.644;23.366;2023-04-08T03:07:32;12.73;;;11.43;;
9720;SDS011;4899;42.644;23.366;2023-04-08T03:09:57;12.77;;;11.30;;
9720;SDS011;4899;42.644;23.366;2023-04-08T03:12:23;14.33;;;12.30;;
9720;SDS011;4899;42.644;23.366;2023-04-08T03:14:51;12.17;;;10.97;;
9720;SDS011;4899;42.644;23.366;2023-04-08T03:17:17;13.37;;;11.43;;
9720;SDS011;4899;42.644;23.366;2023-04-08T03:19:42;12.93;;;11.73;;
9720;SDS011;4899;42.644;23.366;2023-04-08T03:22:08;13.73;;;12.43;;
9720;SDS011;4899;42.644;23.366;2023-04-08T03:24:36;13.47;;;12.13;;
9720;SDS011;4899;42.644;23.366;2023-04-08T03:27:02;13.07;;;11.87;;
9720;SDS011;4899;42.644;23.366;2023-04-08T03:29:28;13.40;;;12.17;;
9720;SDS011;4899;42.644;23.366;2023-04-08T03:31:53;11.67;;;10.57;;
9720;SDS011;4899;42.644;23.366;2023-04-08T03:34:19;12.33;;;11.13;;
9720;SDS011;4899;42.644;23.366;2023-04-08T03:36:44;11.50;;;10.37;;
9720;SDS011;4899;42.644;23.366;2023-04-08T03:39:10;14.30;;;11.27;;
9720;SDS011;4899;42.644;23.366;2023-04-08T03:41:35;12.60;;;10.90;;
9720;SDS011;4899;42.644;23.366;2023-04-08T03:44:01;12.20;;;10.90;;
9720;SDS011;4899;42.644;23.366;2023-04-08T03:46:26;13.13;;;11.37;;
9720;SDS011;4899;42.644;23.366;2023-04-08T03:48:52;15.70;;;11.77;;
9720;SDS011;4899;42.644;23.366;2023-04-08T03:51:17;12.90;;;11.17;;
9720;SDS011;4899;42.644;23.366;2023-04-08T03:53:43;13.90;;;12.50;;
9720;SDS011;4899;42.644;23.366;2023-04-08T03:56:08;13.83;;;12.30;;
9720;SDS011;4899;42.644;23.366;2023-04-08T03:58:34;13.53;;;12.13;;
9720;SDS011;4899;42.644;23.366;2023-04-08T04:01:00;14.30;;;12.47;;
9720;SDS011;4899;42.644;23.366;2023-04-08T04:03:25;14.03;;;12.07;;
9720;SDS011;4899;42.644;23.366;2023-04-08T04:05:51;15.30;;;12.00;;
9720;SDS011;4899;42.644;23.366;2023-04-08T04:08:16;13.53;;;12.13;;
9720;SDS011;4899;42.644;23.366;2023-04-08T04:10:42;14.43;;;12.27;;
9720;SDS011;4899;42.644;23.366;2023-04-08T04:13:07;14.53;;;12.80;;
9720;SDS011;4899;42.644;23.366;2023-04-08T04:15:33;13.43;;;12.13;;
9720;SDS011;4899;42.644;23.366;2023-04-08T04:18:03;13.57;;;12.27;;
9720;SDS011;4899;42.644;23.366;2023-04-08T04:20:28;13.60;;;12.07;;
9720;SDS011;4899;42.644;23.366;2023-04-08T04:22:54;13.03;;;11.73;;
9720;SDS011;4899;42.644;23.366;2023-04-08T04:25:20;13.40;;;11.70;;
9720;SDS011;4899;42.644;23.366;2023-04-08T04:27:45;14.20;;;12.70;;
9720;SDS011;4899;42.644;23.366;2023-04-08T04:30:11;13.67;;;12.27;;
9720;SDS011;4899;42.644;23.366;2023-04-08T04:32:39;15.70;;;13.97;;
9720;SDS011;4899;42.644;23.366;2023-04-08T04:35:05;15.53;;;14.00;;
9720;SDS011;4899;42.644;23.366;2023-04-08T04:37:31;17.47;;;15.33;;
9720;SDS011;4899;42.644;23.366;2023-04-08T04:39:56;22.90;;;16.40;;
9720;SDS011;4899;42.644;23.366;2023-04-08T04:42:22;18.50;;;16.70;;
9720;SDS011;4899;42.644;23.366;2023-04-08T04:44:47;19.60;;;16.17;;
9720;SDS011;4899;42.644;23.366;2023-04-08T04:47:13;17.70;;;15.90;;
9720;SDS011;4899;42.644;23.366;2023-04-08T04:49:40;27.20;;;16.37;;
9720;SDS011;4899;42.644;23.366;2023-04-08T04:52:06;20.13;;;16.13;;
9720;SDS011;4899;42.644;23.366;2023-04-08T04:54:31;17.67;;;15.43;;
9720;SDS011;4899;42.644;23.366;2023-04-08T04:56:57;19.87;;;15.07;;
9720;SDS011;4899;42.644;23.366;2023-04-08T04:59:22;17.87;;;15.20;;
9720;SDS011;4899;42.644;23.366;2023-04-08T05:01:47;16.70;;;14.93;;
9720;SDS011;4899;42.644;23.366;2023-04-08T05:04:13;14.80;;;13.30;;
9720;SDS011;4899;42.644;23.366;2023-04-08T05:06:38;16.03;;;14.50;;
9720;SDS011;4899;42.644;23.366;2023-04-08T05:09:04;15.10;;;13.37;;
9720;SDS011;4899;42.644;23.366;2023-04-08T05:11:29;15.93;;;13.33;;
9720;SDS011;4899;42.644;23.366;2023-04-08T05:13:55;15.07;;;13.57;;
9720;SDS011;4899;42.644;23.366;2023-04-08T05:16:20;14.23;;;12.77;;
9720;SDS011;4899;42.644;23.366;2023-04-08T05:18:46;15.07;;;13.47;;
9720;SDS011;4899;42.644;23.366;2023-04-08T05:21:11;14.93;;;13.40;;
9720;SDS011;4899;42.644;23.366;2023-04-08T05:23:37;15.63;;;14.13;;
9720;SDS011;4899;42.644;23.366;2023-04-08T05:26:02;17.10;;;13.67;;
9720;SDS011;4899;42.644;23.366;2023-04-08T05:28:31;17.93;;;13.97;;
9720;SDS011;4899;42.644;23.366;2023-04-08T05:30:56;16.00;;;14.30;;
9720;SDS011;4899;42.644;23.366;2023-04-08T05:33:22;16.47;;;14.80;;
9720;SDS011;4899;42.644;23.366;2023-04-08T05:35:47;16.10;;;14.37;;
9720;SDS011;4899;42.644;23.366;2023-04-08T05:38:13;17.60;;;14.97;;
9720;SDS011;4899;42.644;23.366;2023-04-08T05:40:38;16.10;;;14.50;;
9720;SDS011;4899;42.644;23.366;2023-04-08T05:43:04;16.50;;;14.60;;
9720;SDS011;4899;42.644;23.366;2023-04-08T05:45:29;17.03;;;14.37;;
9720;SDS011;4899;42.644;23.366;2023-04-08T05:47:55;17.63;;;14.97;;
9720;SDS011;4899;42.644;23.366;2023-04-08T05:50:20;16.57;;;14.83;;
9720;SDS011;4899;42.644;23.366;2023-04-08T05:52:46;15.87;;;14.27;;
9720;SDS011;4899;42.644;23.366;2023-04-08T05:55:12;18.37;;;16.47;;
9720;SDS011;4899;42.644;23.366;2023-04-08T05:57:38;20.00;;;18.00;;
9720;SDS011;4899;42.644;23.366;2023-04-08T06:00:07;21.13;;;16.60;;
9720;SDS011;4899;42.644;23.366;2023-04-08T06:02:34;17.30;;;15.47;;
9720;SDS011;4899;42.644;23.366;2023-04-08T06:05:01;16.60;;;14.97;;
9720;SDS011;4899;42.644;23.366;2023-04-08T06:07:27;20.23;;;16.50;;
9720;SDS011;4899;42.644;23.366;2023-04-08T06:09:53;16.87;;;15.23;;
9720;SDS011;4899;42.644;23.366;2023-04-08T06:12:19;17.67;;;15.87;;
9720;SDS011;4899;42.644;23.366;2023-04-08T06:14:45;21.93;;;16.63;;
9720;SDS011;4899;42.644;23.366;2023-04-08T06:17:10;17.93;;;16.03;;
9720;SDS011;4899;42.644;23.366;2023-04-08T06:19:36;17.47;;;14.70;;
9720;SDS011;4899;42.644;23.366;2023-04-08T06:22:01;17.60;;;14.90;;
9720;SDS011;4899;42.644;23.366;2023-04-08T06:24:27;14.47;;;12.67;;
9720;SDS011;4899;42.644;23.366;2023-04-08T06:26:53;15.63;;;13.57;;
9720;SDS011;4899;42.644;23.366;2023-04-08T06:29:20;15.83;;;14.20;;
9720;SDS011;4899;42.644;23.366;2023-04-08T06:31:47;15.83;;;14.13;;
9720;SDS011;4899;42.644;23.366;2023-04-08T06:34:13;15.83;;;14.30;;
9720;SDS011;4899;42.644;23.366;2023-04-08T06:36:38;15.23;;;13.80;;
9720;SDS011;4899;42.644;23.366;2023-04-08T06:39:04;15.03;;;13.53;;
9720;SDS011;4899;42.644;23.366;2023-04-08T06:41:29;13.77;;;12.47;;
9720;SDS011;4899;42.644;23.366;2023-04-08T06:43:55;14.57;;;13.17;;
9720;SDS011;4899;42.644;23.366;2023-04-08T06:46:20;29.63;;;26.73;;
9720;SDS011;4899;42.644;23.366;2023-04-08T06:48:46;15.63;;;14.13;;
9720;SDS011;4899;42.644;23.366;2023-04-08T06:51:11;15.60;;;13.77;;
9720;SDS011;4899;42.644;23.366;2023-04-08T06:53:37;17.00;;;15.37;;
9720;SDS011;4899;42.644;23.366;2023-04-08T06:56:02;16.83;;;14.43;;
9720;SDS011;4899;42.644;23.366;2023-04-08T06:58:28;18.60;;;16.73;;
9720;SDS011;4899;42.644;23.366;2023-04-08T07:00:54;18.20;;;14.13;;
9720;SDS011;4899;42.644;23.366;2023-04-08T07:03:20;16.60;;;14.50;;
9720;SDS011;4899;42.644;23.366;2023-04-08T07:05:46;16.40;;;14.50;;
9720;SDS011;4899;42.644;23.366;2023-04-08T07:08:11;16.07;;;14.47;;
9720;SDS011;4899;42.644;23.366;2023-04-08T07:10:37;15.63;;;13.43;;
9720;SDS011;4899;42.644;23.366;2023-04-08T07:13:02;16.27;;;14.67;;
9720;SDS011;4899;42.644;23.366;2023-04-08T07:15:28;16.40;;;14.30;;
9720;SDS011;4899;42.644;23.366;2023-04-08T07:17:53;16.47;;;13.30;;
9720;SDS011;4899;42.644;23.366;2023-04-08T07:20:22;16.80;;;13.90;;
9720;SDS011;4899;42.644;23.366;2023-04-08T07:22:48;15.07;;;13.47;;
9720;SDS011;4899;42.644;23.366;2023-04-08T07:25:14;14.97;;;13.37;;
9720;SDS011;4899;42.644;23.366;2023-04-08T07:27:40;15.77;;;14.37;;
9720;SDS011;4899;42.644;23.366;2023-04-08T07:30:06;20.30;;;14.63;;
9720;SDS011;4899;42.644;23.366;2023-04-08T07:32:32;15.43;;;13.57;;
9720;SDS011;4899;42.644;23.366;2023-04-08T07:34:58;15.23;;;13.47;;
9720;SDS011;4899;42.644;23.366;2023-04-08T07:37:24;16.37;;;14.33;;
9720;SDS011;4899;42.644;23.366;2023-04-08T07:39:50;19.50;;;17.57;;
9720;SDS011;4899;42.644;23.366;2023-04-08T07:42:16;21.97;;;18.40;;
9720;SDS011;4899;42.644;23.366;2023-04-08T07:44:42;14.93;;;13.53;;
9720;SDS011;4899;42.644;23.366;2023-04-08T07:47:09;15.43;;;14.03;;
9720;SDS011;4899;42.644;23.366;2023-04-08T07:49:35;17.87;;;16.07;;
9720;SDS011;4899;42.644;23.366;2023-04-08T07:52:01;14.70;;;13.30;;
9720;SDS011;4899;42.644;23.366;2023-04-08T07:54:27;14.57;;;13.17;;
9720;SDS011;4899;42.644;23.366;2023-04-08T07:56:52;15.10;;;13.70;;
9720;SDS011;4899;42.644;23.366;2023-04-08T07:59:17;15.60;;;14.10;;
9720;SDS011;4899;42.644;23.366;2023-04-08T08:01:43;15.10;;;13.47;;
9720;SDS011;4899;42.644;23.366;2023-04-08T08:04:08;16.27;;;12.97;;
9720;SDS011;4899;42.644;23.366;2023-04-08T08:06:34;15.70;;;14.07;;
9720;SDS011;4899;42.644;23.366;2023-04-08T08:08:59;14.07;;;12.57;;
9720;SDS011;4899;42.644;23.366;2023-04-08T08:11:25;14.07;;;12.60;;
9720;SDS011;4899;42.644;23.366;2023-04-08T08:13:52;14.57;;;12.73;;
9720;SDS011;4899;42.644;23.366;2023-04-08T08:16:18;13.47;;;12.30;;
9720;SDS011;4899;42.644;23.366;2023-04-08T08:18:43;14.40;;;11.20;;
9720;SDS011;4899;42.644;23.366;2023-04-08T08:21:09;14.83;;;13.30;;
9720;SDS011;4899;42.644;23.366;2023-04-08T08:23:34;13.60;;;12.23;;
9720;SDS011;4899;42.644;23.366;2023-04-08T08:26:02;14.90;;;13.40;;
9720;SDS011;4899;42.644;23.366;2023-04-08T08:28:32;13.50;;;12.03;;
9720;SDS011;4899;42.644;23.366;2023-04-08T08:30:58;13.00;;;11.73;;
9720;SDS011;4899;42.644;23.366;2023-04-08T08:33:24;13.70;;;12.30;;
9720;SDS011;4899;42.644;23.366;2023-04-08T08:35:50;13.03;;;11.83;;
9720;SDS011;4899;42.644;23.366;2023-04-08T08:38:15;14.57;;;13.20;;
9720;SDS011;4899;42.644;23.366;2023-04-08T08:40:42;12.73;;;11.43;;
9720;SDS011;4899;42.644;23.366;2023-04-08T08:43:08;14.83;;;13.40;;
9720;SDS011;4899;42.644;23.366;2023-04-08T08:45:37;14.57;;;13.27;;
9720;SDS011;4899;42.644;23.366;2023-04-08T08:48:06;16.63;;;15.03;;
9720;SDS011;4899;42.644;23.366;2023-04-08T08:50:35;17.40;;;15.63;;
9720;SDS011;4899;42.644;23.366;2023-04-08T08:53:00;17.70;;;15.97;;
9720;SDS011;4899;42.644;23.366;2023-04-08T08:55:28;18.33;;;16.47;;
9720;SDS011;4899;42.644;23.366;2023-04-08T08:57:56;18.40;;;15.70;;
9720;SDS011;4899;42.644;23.366;2023-04-08T09:00:31;18.73;;;16.70;;
9720;SDS011;4899;42.644;23.366;2023-04-08T09:03:22;18.73;;;16.83;;
9720;SDS011;4899;42.644;23.366;2023-04-08T09:05:56;18.23;;;16.53;;
9720;SDS011;4899;42.644;23.366;2023-04-08T09:10:48;17.70;;;15.90;;
9720;SDS011;4899;42.644;23.366;2023-04-08T09:13:13;17.83;;;16.23;;
9720;SDS011;4899;42.644;23.366;2023-04-08T09:18:32;16.57;;;14.90;;
9720;SDS011;4899;42.644;23.366;2023-04-08T09:21:01;16.33;;;14.63;;
9720;SDS011;4899;42.644;23.366;2023-04-08T09:26:22;14.70;;;13.23;;
9720;SDS011;4899;42.644;23.366;2023-04-08T09:31:23;18.13;;;14.50;;
9720;SDS011;4899;42.644;23.366;2023-04-08T09:33:51;14.37;;;12.87;;
9720;SDS011;4899;42.644;23.366;2023-04-08T09:36:21;14.33;;;12.57;;
9720;SDS011;4899;42.644;23.366;2023-04-08T09:38:47;13.43;;;12.03;;
9720;SDS011;4899;42.644;23.366;2023-04-08T09:41:13;13.87;;;12.57;;
9720;SDS011;4899;42.644;23.366;2023-04-08T09:43:41;14.57;;;13.03;;
9720;SDS011;4899;42.644;23.366;2023-04-08T09:46:16;13.73;;;12.27;;
9720;SDS011;4899;42.644;23.366;2023-04-08T09:48:49;14.73;;;13.13;;
9720;SDS011;4899;42.644;23.366;2023-04-08T09:51:32;15.30;;;12.33;;
9720;SDS011;4899;42.644;23.366;2023-04-08T09:54:06;14.20;;;12.70;;
9720;SDS011;4899;42.644;23.366;2023-04-08T09:56:40;15.00;;;13.60;;
9720;SDS011;4899;42.644;23.366;2023-04-08T09:59:15;16.27;;;14.50;;
9720;SDS011;4899;42.644;23.366;2023-04-08T10:01:47;15.93;;;12.90;;
9720;SDS011;4899;42.644;23.366;2023-04-08T10:04:17;16.20;;;14.20;;
9720;SDS011;4899;42.644;23.366;2023-04-08T10:06:49;14.87;;;13.47;;
9720;SDS011;4899;42.644;23.366;2023-04-08T10:09:21;15.27;;;13.60;;
9720;SDS011;4899;42.644;23.366;2023-04-08T10:11:47;15.70;;;14.13;;
9720;SDS011;4899;42.644;23.366;2023-04-08T10:14:14;15.47;;;13.60;;
9720;SDS011;4899;42.644;23.366;2023-04-08T10:16:39;16.47;;;14.60;;
9720;SDS011;4899;42.644;23.366;2023-04-08T10:22:50;17.37;;;14.20;;
9720;SDS011;4899;42.644;23.366;2023-04-08T10:28:01;15.40;;;13.83;;
9720;SDS011;4899;42.644;23.366;2023-04-08T10:30:48;13.87;;;12.60;;
9720;SDS011;4899;42.644;23.366;2023-04-08T10:33:16;14.77;;;13.27;;
9720;SDS011;4899;42.644;23.366;2023-04-08T10:35:47;14.60;;;13.20;;
9720;SDS011;4899;42.644;23.366;2023-04-08T10:38:15;14.47;;;12.97;;
9720;SDS011;4899;42.644;23.366;2023-04-08T10:40:42;14.20;;;12.70;;
9720;SDS011;4899;42.644;23.366;2023-04-08T10:43:09;15.67;;;14.10;;
9720;SDS011;4899;42.644;23.366;2023-04-08T10:45:35;14.17;;;12.87;;
9720;SDS011;4899;42.644;23.366;2023-04-08T10:48:20;15.27;;;13.77;;
9720;SDS011;4899;42.644;23.366;2023-04-08T10:53:34;15.60;;;13.93;;
9720;SDS011;4899;42.644;23.366;2023-04-08T10:56:08;14.67;;;13.27;;
9720;SDS011;4899;42.644;23.366;2023-04-08T10:58:58;13.37;;;12.17;;
9720;SDS011;4899;42.644;23.366;2023-04-08T11:01:23;13.37;;;12.17;;
9720;SDS011;4899;42.644;23.366;2023-04-08T11:03:49;13.03;;;11.73;;
9720;SDS011;4899;42.644;23.366;2023-04-08T11:06:15;13.87;;;12.57;;
9720;SDS011;4899;42.644;23.366;2023-04-08T11:08:41;13.27;;;11.87;;
9720;SDS011;4899;42.644;23.366;2023-04-08T11:11:08;13.30;;;11.70;;
9720;SDS011;4899;42.644;23.366;2023-04-08T11:13:36;13.10;;;11.90;;
9720;SDS011;4899;42.644;23.366;2023-04-08T11:16:03;12.13;;;10.87;;
9720;SDS011;4899;42.644;23.366;2023-04-08T11:18:31;13.87;;;11.23;;
9720;SDS011;4899;42.644;23.366;2023-04-08T11:20:58;12.23;;;11.00;;
9720;SDS011;4899;42.644;23.366;2023-04-08T11:23:24;12.10;;;10.90;;
9720;SDS011;4899;42.644;23.366;2023-04-08T11:25:50;11.87;;;10.67;;
9720;SDS011;4899;42.644;23.366;2023-04-08T11:28:16;12.13;;;10.93;;
9720;SDS011;4899;42.644;23.366;2023-04-08T11:30:42;12.43;;;11.23;;
9720;SDS011;4899;42.644;23.366;2023-04-08T11:33:09;12.37;;;11.07;;
9720;SDS011;4899;42.644;23.366;2023-04-08T11:35:38;11.43;;;10.33;;
9720;SDS011;4899;42.644;23.366;2023-04-08T11:38:05;9.97;;;8.97;;
9720;SDS011;4899;42.644;23.366;2023-04-08T11:40:32;10.23;;;9.33;;
9720;SDS011;4899;42.644;23.366;2023-04-08T11:42:58;9.63;;;8.87;;
9720;SDS011;4899;42.644;23.366;2023-04-08T11:45:23;11.23;;;10.07;;
9720;SDS011;4899;42.644;23.366;2023-04-08T11:47:49;10.30;;;9.40;;
9720;SDS011;4899;42.644;23.366;2023-04-08T11:50:24;12.53;;;11.50;;
9720;SDS011;4899;42.644;23.366;2023-04-08T11:52:50;13.87;;;12.47;;
9720;SDS011;4899;42.644;23.366;2023-04-08T11:57:56;11.50;;;10.50;;
9720;SDS011;4899;42.644;23.366;2023-04-08T12:00:26;13.07;;;9.93;;
9720;SDS011;4899;42.644;23.366;2023-04-08T12:02:52;11.33;;;10.27;;
9720;SDS011;4899;42.644;23.366;2023-04-08T12:05:17;11.27;;;10.27;;
9720;SDS011;4899;42.644;23.366;2023-04-08T12:07:44;12.00;;;10.73;;
9720;SDS011;4899;42.644;23.366;2023-04-08T12:10:10;11.90;;;10.80;;
9720;SDS011;4899;42.644;23.366;2023-04-08T12:12:36;11.40;;;10.30;;
9720;SDS011;4899;42.644;23.366;2023-04-08T12:15:02;10.90;;;9.97;;
9720;SDS011;4899;42.644;23.366;2023-04-08T12:17:28;10.93;;;9.93;;
9720;SDS011;4899;42.644;23.366;2023-04-08T12:19:53;10.40;;;9.50;;
9720;SDS011;4899;42.644;23.366;2023-04-08T12:22:19;9.10;;;8.30;;
9720;SDS011;4899;42.644;23.366;2023-04-08T12:24:45;10.63;;;9.73;;
9720;SDS011;4899;42.644;23.366;2023-04-08T12:27:10;10.60;;;9.73;;
9720;SDS011;4899;42.644;23.366;2023-04-08T12:29:37;10.03;;;9.23;;
9720;SDS011;4899;42.644;23.366;2023-04-08T12:32:03;9.60;;;8.60;;
9720;SDS011;4899;42.644;23.366;2023-04-08T12:34:29;7.10;;;6.50;;
9720;SDS011;4899;42.644;23.366;2023-04-08T12:36:55;6.63;;;6.13;;
9720;SDS011;4899;42.644;23.366;2023-04-08T12:39:21;6.67;;;6.10;;
9720;SDS011;4899;42.644;23.366;2023-04-08T12:41:47;7.07;;;6.47;;
9720;SDS011;4899;42.644;23.366;2023-04-08T12:44:12;6.57;;;5.93;;
9720;SDS011;4899;42.644;23.366;2023-04-08T12:46:38;7.00;;;6.40;;
9720;SDS011;4899;42.644;23.366;2023-04-08T12:49:03;7.33;;;6.70;;
9720;SDS011;4899;42.644;23.366;2023-04-08T12:51:28;6.50;;;6.03;;
9720;SDS011;4899;42.644;23.366;2023-04-08T12:53:55;6.50;;;6.10;;
9720;SDS011;4899;42.644;23.366;2023-04-08T12:56:20;7.43;;;6.93;;
9720;SDS011;4899;42.644;23.366;2023-04-08T12:58:46;6.83;;;6.33;;
9720;SDS011;4899;42.644;23.366;2023-04-08T13:01:12;8.10;;;7.37;;
9720;SDS011;4899;42.644;23.366;2023-04-08T13:03:37;7.80;;;7.20;;
9720;SDS011;4899;42.644;23.366;2023-04-08T13:06:03;8.83;;;8.20;;
9720;SDS011;4899;42.644;23.366;2023-04-08T13:08:28;8.53;;;7.70;;
9720;SDS011;4899;42.644;23.366;2023-04-08T13:10:54;8.53;;;7.83;;
9720;SDS011;4899;42.644;23.366;2023-04-08T13:13:19;9.00;;;8.10;;
9720;SDS011;4899;42.644;23.366;2023-04-08T13:15:45;9.37;;;8.67;;
9720;SDS011;4899;42.644;23.366;2023-04-08T13:18:11;9.60;;;8.80;;
9720;SDS011;4899;42.644;23.366;2023-04-08T13:20:37;9.53;;;8.83;;
9720;SDS011;4899;42.644;23.366;2023-04-08T13:23:02;9.70;;;8.77;;
9720;SDS011;4899;42.644;23.366;2023-04-08T13:25:28;9.80;;;8.90;;
9720;SDS011;4899;42.644;23.366;2023-04-08T13:27:54;8.70;;;8.00;;
9720;SDS011;4899;42.644;23.366;2023-04-08T13:30:20;7.63;;;7.13;;
9720;SDS011;4899;42.644;23.366;2023-04-08T13:32:45;7.10;;;6.53;;
9720;SDS011;4899;42.644;23.366;2023-04-08T13:35:11;7.20;;;6.60;;
9720;SDS011;4899;42.644;23.366;2023-04-08T13:37:36;7.67;;;6.80;;
9720;SDS011;4899;42.644;23.366;2023-04-08T13:40:02;7.93;;;7.23;;
9720;SDS011;4899;42.644;23.366;2023-04-08T13:42:27;8.50;;;7.80;;
9720;SDS011;4899;42.644;23.366;2023-04-08T13:44:56;8.23;;;7.53;;
9720;SDS011;4899;42.644;23.366;2023-04-08T13:47:21;8.80;;;8.10;;
9720;SDS011;4899;42.644;23.366;2023-04-08T13:49:47;8.60;;;7.90;;
9720;SDS011;4899;42.644;23.366;2023-04-08T13:52:12;8.20;;;7.50;;
9720;SDS011;4899;42.644;23.366;2023-04-08T13:54:40;9.27;;;8.47;;
9720;SDS011;4899;42.644;23.366;2023-04-08T13:57:05;9.13;;;8.40;;
9720;SDS011;4899;42.644;23.366;2023-04-08T13:59:31;8.57;;;7.73;;
9720;SDS011;4899;42.644;23.366;2023-04-08T14:01:56;9.30;;;8.60;;
9720;SDS011;4899;42.644;23.366;2023-04-08T14:04:22;10.70;;;9.67;;
9720;SDS011;4899;42.644;23.366;2023-04-08T14:06:48;9.20;;;8.40;;
9720;SDS011;4899;42.644;23.366;2023-04-08T14:09:17;9.60;;;8.70;;
9720;SDS011;4899;42.644;23.366;2023-04-08T14:11:43;10.93;;;9.90;;
9720;SDS011;4899;42.644;23.366;2023-04-08T14:14:09;11.97;;;10.77;;
9720;SDS011;4899;42.644;23.366;2023-04-08T14:16:34;10.80;;;9.80;;
9720;SDS011;4899;42.644;23.366;2023-04-08T14:19:00;10.80;;;9.80;;
9720;SDS011;4899;42.644;23.366;2023-04-08T14:21:27;11.40;;;10.40;;
9720;SDS011;4899;42.644;23.366;2023-04-08T14:23:52;11.03;;;9.93;;
9720;SDS011;4899;42.644;23.366;2023-04-08T14:26:18;11.57;;;10.57;;
9720;SDS011;4899;42.644;23.366;2023-04-08T14:28:43;10.50;;;9.63;;
9720;SDS011;4899;42.644;23.366;2023-04-08T14:31:08;10.77;;;9.80;;
9720;SDS011;4899;42.644;23.366;2023-04-08T14:33:34;10.53;;;9.70;;
9720;SDS011;4899;42.644;23.366;2023-04-08T14:36:00;9.40;;;8.60;;
9720;SDS011;4899;42.644;23.366;2023-04-08T14:38:25;10.20;;;9.30;;
9720;SDS011;4899;42.644;23.366;2023-04-08T14:40:51;9.20;;;8.40;;
9720;SDS011;4899;42.644;23.366;2023-04-08T14:43:16;8.57;;;7.83;;
9720;SDS011;4899;42.644;23.366;2023-04-08T14:45:42;9.40;;;8.63;;
9720;SDS011;4899;42.644;23.366;2023-04-08T14:48:09;10.90;;;7.83;;
9720;SDS011;4899;42.644;23.366;2023-04-08T14:50:34;8.57;;;7.87;;
9720;SDS011;4899;42.644;23.366;2023-04-08T14:53:00;9.80;;;8.97;;
9720;SDS011;4899;42.644;23.366;2023-04-08T14:55:26;10.17;;;9.37;;
9720;SDS011;4899;42.644;23.366;2023-04-08T14:57:52;9.57;;;8.77;;
9720;SDS011;4899;42.644;23.366;2023-04-08T15:00:18;9.00;;;8.30;;
9720;SDS011;4899;42.644;23.366;2023-04-08T15:02:43;9.10;;;8.40;;
9720;SDS011;4899;42.644;23.366;2023-04-08T15:05:08;9.37;;;8.60;;
9720;SDS011;4899;42.644;23.366;2023-04-08T15:07:34;9.50;;;8.70;;
9720;SDS011;4899;42.644;23.366;2023-04-08T15:10:00;10.30;;;9.40;;